sensor_id;sensor_type;location;lat;lon;timestamp;P1;durP1;ratioP1;P2;durP2;ratioP2
65469;SDS011;52067;50.710;14.492;2024-03-22T00:00:37;13.90;;;6.50;;
65469;SDS011;52067;50.710;14.492;2024-03-22T00:03:03;11.68;;;5.80;;
65469;SDS011;52067;50.710;14.492;2024-03-22T00:05:29;11.90;;;5.75;;
65469;SDS011;52067;50.710;14.492;2024-03-22T00:07:54;9.80;;;5.25;;
65469;SDS011;52067;50.710;14.492;2024-03-22T00:10:19;7.60;;;3.97;;
65469;SDS011;52067;50.710;14.492;2024-03-22T00:12:45;8.27;;;4.45;;
65469;SDS011;52067;50.710;14.492;2024-03-22T00:15:10;11.43;;;5.40;;
65469;SDS011;52067;50.710;14.492;2024-03-22T00:17:35;11.90;;;4.80;;
65469;SDS011;52067;50.710;14.492;2024-03-22T00:20:01;12.27;;;6.20;;
65469;SDS011;52067;50.710;14.492;2024-03-22T00:22:26;12.23;;;5.63;;
65469;SDS011;52067;50.710;14.492;2024-03-22T00:24:51;19.77;;;9.07;;
65469;SDS011;52067;50.710;14.492;2024-03-22T00:27:17;19.13;;;8.60;;
65469;SDS011;52067;50.710;14.492;2024-03-22T00:29:42;10.35;;;4.63;;
65469;SDS011;52067;50.710;14.492;2024-03-22T00:32:08;18.63;;;8.52;;
65469;SDS011;52067;50.710;14.492;2024-03-22T00:34:34;36.72;;;16.38;;
65469;SDS011;52067;50.710;14.492;2024-03-22T00:37:00;9.57;;;5.50;;
65469;SDS011;52067;50.710;14.492;2024-03-22T00:39:25;10.25;;;5.03;;
65469;SDS011;52067;50.710;14.492;2024-03-22T00:41:50;18.73;;;7.45;;
65469;SDS011;52067;50.710;14.492;2024-03-22T00:44:16;18.23;;;8.10;;
65469;SDS011;52067;50.710;14.492;2024-03-22T00:46:41;10.10;;;4.85;;
65469;SDS011;52067;50.710;14.492;2024-03-22T00:49:06;14.93;;;7.25;;
65469;SDS011;52067;50.710;14.492;2024-03-22T00:51:32;11.07;;;5.07;;
65469;SDS011;52067;50.710;14.492;2024-03-22T00:53:57;12.43;;;5.72;;
65469;SDS011;52067;50.710;14.492;2024-03-22T00:56:23;15.25;;;7.78;;
65469;SDS011;52067;50.710;14.492;2024-03-22T00:58:48;9.80;;;4.95;;
65469;SDS011;52067;50.710;14.492;2024-03-22T01:01:13;11.27;;;6.00;;
65469;SDS011;52067;50.710;14.492;2024-03-22T01:03:39;10.82;;;5.65;;
65469;SDS011;52067;50.710;14.492;2024-03-22T01:06:04;15.43;;;7.80;;
65469;SDS011;52067;50.710;14.492;2024-03-22T01:08:29;13.90;;;6.40;;
65469;SDS011;52067;50.710;14.492;2024-03-22T01:10:55;10.18;;;5.28;;
65469;SDS011;52067;50.710;14.492;2024-03-22T01:13:21;13.65;;;5.72;;
65469;SDS011;52067;50.710;14.492;2024-03-22T01:15:46;10.38;;;5.97;;
65469;SDS011;52067;50.710;14.492;2024-03-22T01:18:12;9.25;;;4.93;;
65469;SDS011;52067;50.710;14.492;2024-03-22T01:20:37;11.80;;;6.13;;
65469;SDS011;52067;50.710;14.492;2024-03-22T01:23:03;10.18;;;5.57;;
65469;SDS011;52067;50.710;14.492;2024-03-22T01:25:29;10.85;;;5.55;;
65469;SDS011;52067;50.710;14.492;2024-03-22T01:27:55;10.65;;;6.18;;
65469;SDS011;52067;50.710;14.492;2024-03-22T01:30:21;9.98;;;5.55;;
65469;SDS011;52067;50.710;14.492;2024-03-22T01:32:46;12.38;;;6.22;;
65469;SDS011;52067;50.710;14.492;2024-03-22T01:35:12;13.13;;;6.43;;
65469;SDS011;52067;50.710;14.492;2024-03-22T01:37:37;13.25;;;6.40;;
65469;SDS011;52067;50.710;14.492;2024-03-22T01:40:03;13.43;;;6.97;;
65469;SDS011;52067;50.710;14.492;2024-03-22T01:42:29;11.48;;;6.32;;
65469;SDS011;52067;50.710;14.492;2024-03-22T01:44:55;12.52;;;6.90;;
65469;SDS011;52067;50.710;14.492;2024-03-22T01:47:21;15.00;;;7.43;;
65469;SDS011;52067;50.710;14.492;2024-03-22T01:49:47;13.98;;;7.22;;
65469;SDS011;52067;50.710;14.492;2024-03-22T01:52:14;13.05;;;6.50;;
65469;SDS011;52067;50.710;14.492;2024-03-22T01:54:39;14.50;;;7.82;;
65469;SDS011;52067;50.710;14.492;2024-03-22T01:57:05;14.52;;;7.38;;
65469;SDS011;52067;50.710;14.492;2024-03-22T01:59:30;14.45;;;7.80;;
65469;SDS011;52067;50.710;14.492;2024-03-22T02:01:58;16.52;;;7.95;;
65469;SDS011;52067;50.710;14.492;2024-03-22T02:04:24;18.55;;;9.02;;
65469;SDS011;52067;50.710;14.492;2024-03-22T02:06:49;15.82;;;7.07;;
65469;SDS011;52067;50.710;14.492;2024-03-22T02:09:15;16.63;;;8.82;;
65469;SDS011;52067;50.710;14.492;2024-03-22T02:11:42;16.77;;;7.60;;
65469;SDS011;52067;50.710;14.492;2024-03-22T02:14:08;16.27;;;7.50;;
65469;SDS011;52067;50.710;14.492;2024-03-22T02:16:33;16.13;;;7.63;;
65469;SDS011;52067;50.710;14.492;2024-03-22T02:18:58;16.88;;;8.57;;
65469;SDS011;52067;50.710;14.492;2024-03-22T02:21:24;19.50;;;8.45;;
65469;SDS011;52067;50.710;14.492;2024-03-22T02:23:49;21.48;;;8.93;;
65469;SDS011;52067;50.710;14.492;2024-03-22T02:26:15;16.60;;;8.55;;
65469;SDS011;52067;50.710;14.492;2024-03-22T02:28:40;18.20;;;8.88;;
65469;SDS011;52067;50.710;14.492;2024-03-22T02:31:06;20.73;;;9.13;;
65469;SDS011;52067;50.710;14.492;2024-03-22T02:33:31;21.33;;;8.32;;
65469;SDS011;52067;50.710;14.492;2024-03-22T02:35:57;17.55;;;7.97;;
65469;SDS011;52067;50.710;14.492;2024-03-22T02:38:22;22.80;;;9.00;;
65469;SDS011;52067;50.710;14.492;2024-03-22T02:40:48;17.30;;;8.27;;
65469;SDS011;52067;50.710;14.492;2024-03-22T02:43:14;20.02;;;8.77;;
65469;SDS011;52067;50.710;14.492;2024-03-22T02:45:40;20.35;;;9.43;;
65469;SDS011;52067;50.710;14.492;2024-03-22T02:48:06;16.50;;;8.35;;
65469;SDS011;52067;50.710;14.492;2024-03-22T02:50:35;16.25;;;7.25;;
65469;SDS011;52067;50.710;14.492;2024-03-22T02:53:01;18.02;;;8.98;;
65469;SDS011;52067;50.710;14.492;2024-03-22T02:55:27;16.60;;;7.90;;
65469;SDS011;52067;50.710;14.492;2024-03-22T02:57:53;18.55;;;8.50;;
65469;SDS011;52067;50.710;14.492;2024-03-22T03:00:18;18.25;;;8.15;;
65469;SDS011;52067;50.710;14.492;2024-03-22T03:02:45;18.20;;;8.23;;
65469;SDS011;52067;50.710;14.492;2024-03-22T03:05:10;17.08;;;7.93;;
65469;SDS011;52067;50.710;14.492;2024-03-22T03:07:36;16.27;;;7.78;;
65469;SDS011;52067;50.710;14.492;2024-03-22T03:10:01;17.00;;;7.70;;
65469;SDS011;52067;50.710;14.492;2024-03-22T03:12:27;13.15;;;7.18;;
65469;SDS011;52067;50.710;14.492;2024-03-22T03:14:52;18.48;;;8.50;;
65469;SDS011;52067;50.710;14.492;2024-03-22T03:17:18;16.40;;;7.43;;
65469;SDS011;52067;50.710;14.492;2024-03-22T03:19:44;16.35;;;7.85;;
65469;SDS011;52067;50.710;14.492;2024-03-22T03:22:09;17.17;;;8.07;;
65469;SDS011;52067;50.710;14.492;2024-03-22T03:24:35;16.25;;;8.30;;
65469;SDS011;52067;50.710;14.492;2024-03-22T03:27:00;17.48;;;8.40;;
65469;SDS011;52067;50.710;14.492;2024-03-22T03:29:26;21.10;;;7.78;;
65469;SDS011;52067;50.710;14.492;2024-03-22T03:31:51;17.38;;;8.35;;
65469;SDS011;52067;50.710;14.492;2024-03-22T03:34:16;15.43;;;7.68;;
65469;SDS011;52067;50.710;14.492;2024-03-22T03:36:42;15.07;;;7.70;;
65469;SDS011;52067;50.710;14.492;2024-03-22T03:39:07;15.82;;;7.53;;
65469;SDS011;52067;50.710;14.492;2024-03-22T03:41:33;16.70;;;7.80;;
65469;SDS011;52067;50.710;14.492;2024-03-22T03:43:59;14.38;;;7.95;;
65469;SDS011;52067;50.710;14.492;2024-03-22T03:46:24;16.98;;;7.65;;
65469;SDS011;52067;50.710;14.492;2024-03-22T03:48:50;14.52;;;7.82;;
65469;SDS011;52067;50.710;14.492;2024-03-22T03:51:15;15.70;;;7.90;;
65469;SDS011;52067;50.710;14.492;2024-03-22T03:53:40;17.08;;;8.02;;
65469;SDS011;52067;50.710;14.492;2024-03-22T03:56:06;16.98;;;7.63;;
65469;SDS011;52067;50.710;14.492;2024-03-22T03:58:31;16.77;;;7.75;;
65469;SDS011;52067;50.710;14.492;2024-03-22T04:00:57;19.30;;;8.80;;
65469;SDS011;52067;50.710;14.492;2024-03-22T04:03:22;15.40;;;7.80;;
65469;SDS011;52067;50.710;14.492;2024-03-22T04:05:56;15.77;;;7.32;;
65469;SDS011;52067;50.710;14.492;2024-03-22T04:08:22;17.98;;;8.45;;
65469;SDS011;52067;50.710;14.492;2024-03-22T04:10:51;16.20;;;7.93;;
65469;SDS011;52067;50.710;14.492;2024-03-22T04:13:23;15.35;;;7.78;;
65469;SDS011;52067;50.710;14.492;2024-03-22T04:15:49;19.13;;;7.90;;
65469;SDS011;52067;50.710;14.492;2024-03-22T04:18:14;19.83;;;8.07;;
65469;SDS011;52067;50.710;14.492;2024-03-22T04:20:40;18.73;;;7.65;;
65469;SDS011;52067;50.710;14.492;2024-03-22T04:23:05;18.88;;;8.35;;
65469;SDS011;52067;50.710;14.492;2024-03-22T04:25:31;17.67;;;8.30;;
65469;SDS011;52067;50.710;14.492;2024-03-22T04:27:56;20.30;;;8.57;;
65469;SDS011;52067;50.710;14.492;2024-03-22T04:30:21;16.60;;;7.78;;
65469;SDS011;52067;50.710;14.492;2024-03-22T04:32:47;17.42;;;7.95;;
65469;SDS011;52067;50.710;14.492;2024-03-22T04:35:12;17.13;;;7.57;;
65469;SDS011;52067;50.710;14.492;2024-03-22T04:37:38;17.20;;;7.78;;
65469;SDS011;52067;50.710;14.492;2024-03-22T04:40:03;19.00;;;9.30;;
65469;SDS011;52067;50.710;14.492;2024-03-22T04:42:29;19.73;;;8.88;;
65469;SDS011;52067;50.710;14.492;2024-03-22T04:44:55;15.23;;;7.75;;
65469;SDS011;52067;50.710;14.492;2024-03-22T04:47:20;16.27;;;8.20;;
65469;SDS011;52067;50.710;14.492;2024-03-22T04:49:45;17.02;;;7.63;;
65469;SDS011;52067;50.710;14.492;2024-03-22T04:52:11;20.75;;;8.32;;
65469;SDS011;52067;50.710;14.492;2024-03-22T04:54:36;16.73;;;7.95;;
65469;SDS011;52067;50.710;14.492;2024-03-22T04:57:02;23.92;;;10.82;;
65469;SDS011;52067;50.710;14.492;2024-03-22T04:59:27;21.52;;;8.63;;
65469;SDS011;52067;50.710;14.492;2024-03-22T05:01:53;18.95;;;8.70;;
65469;SDS011;52067;50.710;14.492;2024-03-22T05:04:18;20.00;;;8.90;;
65469;SDS011;52067;50.710;14.492;2024-03-22T05:06:43;24.00;;;9.32;;
65469;SDS011;52067;50.710;14.492;2024-03-22T05:09:09;29.45;;;8.32;;
65469;SDS011;52067;50.710;14.492;2024-03-22T05:11:35;18.33;;;7.97;;
65469;SDS011;52067;50.710;14.492;2024-03-22T05:14:00;19.80;;;9.15;;
65469;SDS011;52067;50.710;14.492;2024-03-22T05:16:26;18.50;;;8.25;;
65469;SDS011;52067;50.710;14.492;2024-03-22T05:18:51;18.48;;;8.43;;
65469;SDS011;52067;50.710;14.492;2024-03-22T05:21:16;22.98;;;9.00;;
65469;SDS011;52067;50.710;14.492;2024-03-22T05:23:42;17.90;;;8.35;;
65469;SDS011;52067;50.710;14.492;2024-03-22T05:26:07;22.25;;;10.10;;
65469;SDS011;52067;50.710;14.492;2024-03-22T05:28:33;20.65;;;9.63;;
65469;SDS011;52067;50.710;14.492;2024-03-22T05:30:58;20.05;;;9.32;;
65469;SDS011;52067;50.710;14.492;2024-03-22T05:33:23;31.38;;;10.40;;
65469;SDS011;52067;50.710;14.492;2024-03-22T05:35:49;23.58;;;10.55;;
65469;SDS011;52067;50.710;14.492;2024-03-22T05:38:14;23.23;;;9.85;;
65469;SDS011;52067;50.710;14.492;2024-03-22T05:40:40;22.70;;;10.75;;
65469;SDS011;52067;50.710;14.492;2024-03-22T05:43:05;23.38;;;10.02;;
65469;SDS011;52067;50.710;14.492;2024-03-22T05:45:30;27.40;;;10.68;;
65469;SDS011;52067;50.710;14.492;2024-03-22T05:47:56;24.58;;;10.15;;
65469;SDS011;52067;50.710;14.492;2024-03-22T05:50:22;24.58;;;11.02;;
65469;SDS011;52067;50.710;14.492;2024-03-22T05:52:47;31.33;;;10.30;;
65469;SDS011;52067;50.710;14.492;2024-03-22T05:55:12;26.83;;;10.20;;
65469;SDS011;52067;50.710;14.492;2024-03-22T05:57:38;21.15;;;10.00;;
65469;SDS011;52067;50.710;14.492;2024-03-22T06:00:04;22.35;;;9.73;;
65469;SDS011;52067;50.710;14.492;2024-03-22T06:02:32;23.17;;;10.73;;
65469;SDS011;52067;50.710;14.492;2024-03-22T06:04:57;33.08;;;12.45;;
65469;SDS011;52067;50.710;14.492;2024-03-22T06:07:23;37.38;;;17.17;;
65469;SDS011;52067;50.710;14.492;2024-03-22T06:09:49;43.55;;;18.20;;
65469;SDS011;52067;50.710;14.492;2024-03-22T06:12:14;38.55;;;15.02;;
65469;SDS011;52067;50.710;14.492;2024-03-22T06:14:41;32.75;;;15.30;;
65469;SDS011;52067;50.710;14.492;2024-03-22T06:17:08;34.38;;;15.32;;
65469;SDS011;52067;50.710;14.492;2024-03-22T06:19:34;33.20;;;14.35;;
65469;SDS011;52067;50.710;14.492;2024-03-22T06:22:00;26.52;;;12.55;;
65469;SDS011;52067;50.710;14.492;2024-03-22T06:24:25;28.85;;;11.75;;
65469;SDS011;52067;50.710;14.492;2024-03-22T06:26:50;25.27;;;11.70;;
65469;SDS011;52067;50.710;14.492;2024-03-22T06:29:16;28.08;;;13.77;;
65469;SDS011;52067;50.710;14.492;2024-03-22T06:31:41;36.03;;;15.48;;
65469;SDS011;52067;50.710;14.492;2024-03-22T06:34:07;41.78;;;17.95;;
65469;SDS011;52067;50.710;14.492;2024-03-22T06:36:33;41.88;;;18.27;;
65469;SDS011;52067;50.710;14.492;2024-03-22T06:38:58;47.55;;;20.00;;
65469;SDS011;52067;50.710;14.492;2024-03-22T06:41:24;51.42;;;21.58;;
65469;SDS011;52067;50.710;14.492;2024-03-22T06:43:51;54.90;;;20.42;;
65469;SDS011;52067;50.710;14.492;2024-03-22T06:46:16;47.42;;;20.83;;
65469;SDS011;52067;50.710;14.492;2024-03-22T06:48:42;43.88;;;20.25;;
65469;SDS011;52067;50.710;14.492;2024-03-22T06:51:07;42.45;;;17.17;;
65469;SDS011;52067;50.710;14.492;2024-03-22T06:53:33;37.80;;;16.85;;
65469;SDS011;52067;50.710;14.492;2024-03-22T06:55:58;38.60;;;17.20;;
65469;SDS011;52067;50.710;14.492;2024-03-22T06:58:24;33.67;;;15.65;;
65469;SDS011;52067;50.710;14.492;2024-03-22T07:00:50;33.13;;;15.65;;
65469;SDS011;52067;50.710;14.492;2024-03-22T07:03:15;27.98;;;14.00;;
65469;SDS011;52067;50.710;14.492;2024-03-22T07:05:42;29.63;;;14.20;;
65469;SDS011;52067;50.710;14.492;2024-03-22T07:08:07;24.48;;;13.15;;
65469;SDS011;52067;50.710;14.492;2024-03-22T07:10:33;26.30;;;13.80;;
65469;SDS011;52067;50.710;14.492;2024-03-22T07:12:59;24.10;;;12.40;;
65469;SDS011;52067;50.710;14.492;2024-03-22T07:15:24;27.67;;;12.23;;
65469;SDS011;52067;50.710;14.492;2024-03-22T07:17:50;22.25;;;11.65;;
65469;SDS011;52067;50.710;14.492;2024-03-22T07:20:16;20.40;;;11.07;;
65469;SDS011;52067;50.710;14.492;2024-03-22T07:22:42;24.15;;;11.70;;
65469;SDS011;52067;50.710;14.492;2024-03-22T07:25:07;20.65;;;11.05;;
65469;SDS011;52067;50.710;14.492;2024-03-22T07:27:36;20.27;;;10.00;;
65469;SDS011;52067;50.710;14.492;2024-03-22T07:30:01;20.52;;;10.77;;
65469;SDS011;52067;50.710;14.492;2024-03-22T07:32:28;16.65;;;10.05;;
65469;SDS011;52067;50.710;14.492;2024-03-22T07:34:55;19.75;;;10.40;;
65469;SDS011;52067;50.710;14.492;2024-03-22T07:37:20;18.95;;;10.02;;
65469;SDS011;52067;50.710;14.492;2024-03-22T07:39:45;19.20;;;9.82;;
65469;SDS011;52067;50.710;14.492;2024-03-22T07:42:11;17.42;;;9.57;;
65469;SDS011;52067;50.710;14.492;2024-03-22T07:44:36;18.20;;;10.25;;
65469;SDS011;52067;50.710;14.492;2024-03-22T07:47:01;19.67;;;8.85;;
65469;SDS011;52067;50.710;14.492;2024-03-22T07:49:27;15.30;;;8.20;;
65469;SDS011;52067;50.710;14.492;2024-03-22T07:51:52;14.32;;;7.93;;
65469;SDS011;52067;50.710;14.492;2024-03-22T07:54:18;16.13;;;8.77;;
65469;SDS011;52067;50.710;14.492;2024-03-22T07:56:44;13.48;;;8.05;;
65469;SDS011;52067;50.710;14.492;2024-03-22T07:59:09;13.35;;;7.38;;
65469;SDS011;52067;50.710;14.492;2024-03-22T08:01:35;14.20;;;8.13;;
65469;SDS011;52067;50.710;14.492;2024-03-22T08:04:01;12.70;;;7.03;;
65469;SDS011;52067;50.710;14.492;2024-03-22T08:06:26;13.43;;;7.53;;
65469;SDS011;52067;50.710;14.492;2024-03-22T08:08:51;12.05;;;5.93;;
65469;SDS011;52067;50.710;14.492;2024-03-22T08:11:17;13.30;;;7.00;;
65469;SDS011;52067;50.710;14.492;2024-03-22T08:13:42;13.82;;;7.38;;
65469;SDS011;52067;50.710;14.492;2024-03-22T08:16:08;13.80;;;7.82;;
65469;SDS011;52067;50.710;14.492;2024-03-22T08:18:33;12.80;;;6.32;;
65469;SDS011;52067;50.710;14.492;2024-03-22T08:20:58;12.70;;;5.63;;
65469;SDS011;52067;50.710;14.492;2024-03-22T08:23:24;12.80;;;6.00;;
65469;SDS011;52067;50.710;14.492;2024-03-22T08:25:49;12.27;;;6.18;;
65469;SDS011;52067;50.710;14.492;2024-03-22T08:28:15;11.10;;;6.10;;
65469;SDS011;52067;50.710;14.492;2024-03-22T08:30:41;11.15;;;5.93;;
65469;SDS011;52067;50.710;14.492;2024-03-22T08:33:07;11.70;;;6.50;;
65469;SDS011;52067;50.710;14.492;2024-03-22T08:35:33;12.02;;;6.07;;
65469;SDS011;52067;50.710;14.492;2024-03-22T08:37:58;12.38;;;6.22;;
65469;SDS011;52067;50.710;14.492;2024-03-22T08:40:24;11.20;;;6.35;;
65469;SDS011;52067;50.710;14.492;2024-03-22T08:42:49;11.52;;;6.07;;
65469;SDS011;52067;50.710;14.492;2024-03-22T08:45:15;10.13;;;5.80;;
65469;SDS011;52067;50.710;14.492;2024-03-22T08:47:41;10.85;;;6.03;;
65469;SDS011;52067;50.710;14.492;2024-03-22T08:50:07;12.15;;;5.63;;
65469;SDS011;52067;50.710;14.492;2024-03-22T08:52:33;9.05;;;4.72;;
65469;SDS011;52067;50.710;14.492;2024-03-22T08:55:00;8.57;;;5.13;;
65469;SDS011;52067;50.710;14.492;2024-03-22T08:57:26;11.30;;;5.60;;
65469;SDS011;52067;50.710;14.492;2024-03-22T08:59:51;9.20;;;5.32;;
65469;SDS011;52067;50.710;14.492;2024-03-22T09:02:16;9.20;;;5.05;;
65469;SDS011;52067;50.710;14.492;2024-03-22T09:04:42;11.82;;;4.93;;
65469;SDS011;52067;50.710;14.492;2024-03-22T09:07:07;8.05;;;4.35;;
65469;SDS011;52067;50.710;14.492;2024-03-22T09:09:33;9.60;;;4.78;;
65469;SDS011;52067;50.710;14.492;2024-03-22T09:11:58;11.60;;;4.65;;
65469;SDS011;52067;50.710;14.492;2024-03-22T09:14:24;9.25;;;4.57;;
65469;SDS011;52067;50.710;14.492;2024-03-22T09:16:49;7.43;;;4.20;;
65469;SDS011;52067;50.710;14.492;2024-03-22T09:19:14;11.10;;;4.47;;
65469;SDS011;52067;50.710;14.492;2024-03-22T09:21:40;9.10;;;4.10;;
65469;SDS011;52067;50.710;14.492;2024-03-22T09:24:05;7.32;;;4.10;;
65469;SDS011;52067;50.710;14.492;2024-03-22T09:26:31;9.07;;;4.72;;
65469;SDS011;52067;50.710;14.492;2024-03-22T09:28:57;10.27;;;5.18;;
65469;SDS011;52067;50.710;14.492;2024-03-22T09:31:23;9.88;;;4.53;;
65469;SDS011;52067;50.710;14.492;2024-03-22T09:33:48;9.63;;;4.88;;
65469;SDS011;52067;50.710;14.492;2024-03-22T09:36:14;10.98;;;4.57;;
65469;SDS011;52067;50.710;14.492;2024-03-22T09:38:39;8.55;;;4.25;;
65469;SDS011;52067;50.710;14.492;2024-03-22T09:41:05;9.18;;;4.68;;
65469;SDS011;52067;50.710;14.492;2024-03-22T09:43:30;10.32;;;5.00;;
65469;SDS011;52067;50.710;14.492;2024-03-22T09:45:57;8.80;;;4.72;;
65469;SDS011;52067;50.710;14.492;2024-03-22T09:48:23;11.20;;;5.18;;
65469;SDS011;52067;50.710;14.492;2024-03-22T09:50:49;11.98;;;5.15;;
65469;SDS011;52067;50.710;14.492;2024-03-22T09:53:18;10.32;;;5.18;;
65469;SDS011;52067;50.710;14.492;2024-03-22T09:55:46;10.10;;;5.50;;
65469;SDS011;52067;50.710;14.492;2024-03-22T09:58:12;9.90;;;4.97;;
65469;SDS011;52067;50.710;14.492;2024-03-22T10:00:37;11.75;;;5.30;;
65469;SDS011;52067;50.710;14.492;2024-03-22T10:03:03;12.55;;;5.53;;
65469;SDS011;52067;50.710;14.492;2024-03-22T10:05:29;10.52;;;5.53;;
65469;SDS011;52067;50.710;14.492;2024-03-22T10:07:55;12.38;;;5.65;;
65469;SDS011;52067;50.710;14.492;2024-03-22T10:10:20;12.13;;;5.90;;
65469;SDS011;52067;50.710;14.492;2024-03-22T10:12:46;11.68;;;5.13;;
65469;SDS011;52067;50.710;14.492;2024-03-22T10:15:11;10.82;;;4.78;;
65469;SDS011;52067;50.710;14.492;2024-03-22T10:17:37;7.38;;;4.10;;
65469;SDS011;52067;50.710;14.492;2024-03-22T10:20:04;10.77;;;5.10;;
65469;SDS011;52067;50.710;14.492;2024-03-22T10:22:34;10.25;;;4.88;;
65469;SDS011;52067;50.710;14.492;2024-03-22T10:25:00;10.18;;;5.00;;
65469;SDS011;52067;50.710;14.492;2024-03-22T10:27:26;9.68;;;4.70;;
65469;SDS011;52067;50.710;14.492;2024-03-22T10:29:54;9.73;;;5.18;;
65469;SDS011;52067;50.710;14.492;2024-03-22T10:32:19;8.77;;;4.80;;
65469;SDS011;52067;50.710;14.492;2024-03-22T10:34:45;10.63;;;5.05;;
65469;SDS011;52067;50.710;14.492;2024-03-22T10:37:12;10.30;;;5.07;;
65469;SDS011;52067;50.710;14.492;2024-03-22T10:39:40;9.43;;;5.00;;
65469;SDS011;52067;50.710;14.492;2024-03-22T10:42:08;12.35;;;5.25;;
65469;SDS011;52067;50.710;14.492;2024-03-22T10:44:33;10.27;;;5.25;;
65469;SDS011;52067;50.710;14.492;2024-03-22T10:46:59;10.00;;;4.80;;
65469;SDS011;52067;50.710;14.492;2024-03-22T10:49:27;10.57;;;5.03;;
65469;SDS011;52067;50.710;14.492;2024-03-22T10:51:57;13.00;;;5.13;;
65469;SDS011;52067;50.710;14.492;2024-03-22T10:54:27;9.55;;;5.50;;
65469;SDS011;52067;50.710;14.492;2024-03-22T10:56:57;8.93;;;4.93;;
65469;SDS011;52067;50.710;14.492;2024-03-22T10:59:23;10.48;;;5.30;;
65469;SDS011;52067;50.710;14.492;2024-03-22T11:01:49;11.93;;;5.43;;
65469;SDS011;52067;50.710;14.492;2024-03-22T11:04:15;8.57;;;5.40;;
65469;SDS011;52067;50.710;14.492;2024-03-22T11:06:48;9.80;;;5.57;;
65469;SDS011;52067;50.710;14.492;2024-03-22T11:09:21;7.30;;;4.78;;
65469;SDS011;52067;50.710;14.492;2024-03-22T11:11:47;9.93;;;5.30;;
65469;SDS011;52067;50.710;14.492;2024-03-22T11:17:15;8.65;;;5.07;;
65469;SDS011;52067;50.710;14.492;2024-03-22T11:19:50;8.10;;;4.80;;
65469;SDS011;52067;50.710;14.492;2024-03-22T11:22:16;10.05;;;5.90;;
65469;SDS011;52067;50.710;14.492;2024-03-22T11:24:42;10.73;;;4.97;;
65469;SDS011;52067;50.710;14.492;2024-03-22T11:27:08;11.73;;;6.22;;
65469;SDS011;52067;50.710;14.492;2024-03-22T11:29:36;12.70;;;5.60;;
65469;SDS011;52067;50.710;14.492;2024-03-22T11:32:09;10.98;;;5.80;;
65469;SDS011;52067;50.710;14.492;2024-03-22T11:34:41;11.38;;;5.90;;
65469;SDS011;52067;50.710;14.492;2024-03-22T11:37:06;10.38;;;5.35;;
65469;SDS011;52067;50.710;14.492;2024-03-22T11:39:38;9.50;;;5.03;;
65469;SDS011;52067;50.710;14.492;2024-03-22T11:42:04;8.82;;;4.90;;
65469;SDS011;52067;50.710;14.492;2024-03-22T11:44:31;8.35;;;5.13;;
65469;SDS011;52067;50.710;14.492;2024-03-22T11:46:58;9.30;;;5.07;;
65469;SDS011;52067;50.710;14.492;2024-03-22T11:49:24;8.90;;;4.90;;
65469;SDS011;52067;50.710;14.492;2024-03-22T11:51:51;8.32;;;4.53;;
65469;SDS011;52067;50.710;14.492;2024-03-22T11:54:19;9.65;;;5.35;;
65469;SDS011;52067;50.710;14.492;2024-03-22T11:56:45;11.88;;;5.47;;
65469;SDS011;52067;50.710;14.492;2024-03-22T11:59:10;7.68;;;4.78;;
65469;SDS011;52067;50.710;14.492;2024-03-22T12:01:35;9.75;;;5.00;;
65469;SDS011;52067;50.710;14.492;2024-03-22T12:04:01;10.75;;;4.68;;
65469;SDS011;52067;50.710;14.492;2024-03-22T12:06:27;7.07;;;4.60;;
65469;SDS011;52067;50.710;14.492;2024-03-22T12:08:52;6.90;;;4.28;;
65469;SDS011;52067;50.710;14.492;2024-03-22T12:11:18;8.77;;;4.72;;
65469;SDS011;52067;50.710;14.492;2024-03-22T12:13:43;8.82;;;4.95;;
65469;SDS011;52067;50.710;14.492;2024-03-22T12:16:09;8.02;;;4.68;;
65469;SDS011;52067;50.710;14.492;2024-03-22T12:18:34;8.63;;;4.85;;
65469;SDS011;52067;50.710;14.492;2024-03-22T12:21:00;8.80;;;4.88;;
65469;SDS011;52067;50.710;14.492;2024-03-22T12:23:26;8.57;;;4.20;;
65469;SDS011;52067;50.710;14.492;2024-03-22T12:25:51;8.15;;;4.50;;
65469;SDS011;52067;50.710;14.492;2024-03-22T12:28:17;8.63;;;4.38;;
65469;SDS011;52067;50.710;14.492;2024-03-22T12:30:43;7.45;;;4.40;;
65469;SDS011;52067;50.710;14.492;2024-03-22T12:33:09;7.65;;;4.78;;
65469;SDS011;52067;50.710;14.492;2024-03-22T12:35:36;7.97;;;4.40;;
65469;SDS011;52067;50.710;14.492;2024-03-22T12:38:02;6.97;;;3.83;;
65469;SDS011;52067;50.710;14.492;2024-03-22T12:40:28;7.18;;;4.57;;
65469;SDS011;52067;50.710;14.492;2024-03-22T12:42:54;7.60;;;4.30;;
65469;SDS011;52067;50.710;14.492;2024-03-22T12:45:20;9.65;;;4.95;;
65469;SDS011;52067;50.710;14.492;2024-03-22T12:47:45;7.75;;;4.25;;
65469;SDS011;52067;50.710;14.492;2024-03-22T12:50:11;8.50;;;4.03;;
65469;SDS011;52067;50.710;14.492;2024-03-22T12:52:38;7.45;;;4.05;;
65469;SDS011;52067;50.710;14.492;2024-03-22T12:55:04;7.70;;;4.20;;
65469;SDS011;52067;50.710;14.492;2024-03-22T12:57:31;8.23;;;3.90;;
65469;SDS011;52067;50.710;14.492;2024-03-22T12:59:56;7.20;;;4.22;;
65469;SDS011;52067;50.710;14.492;2024-03-22T13:02:23;8.02;;;4.53;;
65469;SDS011;52067;50.710;14.492;2024-03-22T13:04:49;8.32;;;4.38;;
65469;SDS011;52067;50.710;14.492;2024-03-22T13:07:15;6.38;;;3.83;;
65469;SDS011;52067;50.710;14.492;2024-03-22T13:09:42;9.30;;;4.63;;
65469;SDS011;52067;50.710;14.492;2024-03-22T13:12:07;11.07;;;4.18;;
65469;SDS011;52067;50.710;14.492;2024-03-22T13:14:33;7.28;;;4.07;;
65469;SDS011;52067;50.710;14.492;2024-03-22T13:16:58;8.68;;;4.60;;
65469;SDS011;52067;50.710;14.492;2024-03-22T13:19:23;7.38;;;4.50;;
65469;SDS011;52067;50.710;14.492;2024-03-22T13:21:49;7.93;;;4.78;;
65469;SDS011;52067;50.710;14.492;2024-03-22T13:24:15;7.13;;;3.90;;
65469;SDS011;52067;50.710;14.492;2024-03-22T13:26:41;7.57;;;4.43;;
65469;SDS011;52067;50.710;14.492;2024-03-22T13:29:06;8.55;;;4.80;;
65469;SDS011;52067;50.710;14.492;2024-03-22T13:31:32;10.05;;;4.47;;
65469;SDS011;52067;50.710;14.492;2024-03-22T13:33:58;10.13;;;4.50;;
65469;SDS011;52067;50.710;14.492;2024-03-22T13:36:23;8.63;;;4.60;;
65469;SDS011;52067;50.710;14.492;2024-03-22T13:38:50;9.35;;;4.60;;
65469;SDS011;52067;50.710;14.492;2024-03-22T13:41:16;9.43;;;4.68;;
65469;SDS011;52067;50.710;14.492;2024-03-22T13:43:42;10.70;;;4.75;;
65469;SDS011;52067;50.710;14.492;2024-03-22T13:46:09;8.02;;;4.72;;
65469;SDS011;52067;50.710;14.492;2024-03-22T13:48:39;8.90;;;5.18;;
65469;SDS011;52067;50.710;14.492;2024-03-22T13:51:05;8.55;;;4.40;;
65469;SDS011;52067;50.710;14.492;2024-03-22T13:53:30;8.55;;;4.80;;
65469;SDS011;52067;50.710;14.492;2024-03-22T13:55:56;9.90;;;4.63;;
65469;SDS011;52067;50.710;14.492;2024-03-22T13:58:21;8.73;;;4.40;;
65469;SDS011;52067;50.710;14.492;2024-03-22T14:00:47;9.77;;;4.50;;
65469;SDS011;52067;50.710;14.492;2024-03-22T14:03:12;9.07;;;4.38;;
65469;SDS011;52067;50.710;14.492;2024-03-22T14:05:38;7.43;;;4.40;;
65469;SDS011;52067;50.710;14.492;2024-03-22T14:08:05;7.90;;;4.40;;
65469;SDS011;52067;50.710;14.492;2024-03-22T14:10:31;8.88;;;4.55;;
65469;SDS011;52067;50.710;14.492;2024-03-22T14:12:56;8.75;;;4.82;;
65469;SDS011;52067;50.710;14.492;2024-03-22T14:15:22;7.95;;;4.80;;
65469;SDS011;52067;50.710;14.492;2024-03-22T14:17:50;8.40;;;4.45;;